TimeMDT,TemperatureF,Dew PointF,Humidity,Sea Level PressureIn,VisibilityMPH,Wind Direction,Wind SpeedMPH,Gust SpeedMPH,PrecipitationIn,Events,Conditions,WindDirDegrees,DateUTC
12:53 AM,62.1,12.9,15,29.65,10.0,WSW,13.8,-,N/A,,Clear,250,2013-05-01 06:53:00
1:53 AM,63.0,10.9,13,29.65,10.0,WSW,16.1,-,N/A,,Clear,250,2013-05-01 07:53:00
2:53 AM,60.1,10.9,14,29.64,10.0,WSW,13.8,-,N/A,,Clear,240,2013-05-01 08:53:00
3:50 AM,62.6,10.4,13,29.86,10.0,West,19.6,27.6,N/A,,Partly Cloudy,270,2013-05-01 09:50:00
3:53 AM,63.0,10.9,13,29.67,10.0,West,23.0,31.1,N/A,,Partly Cloudy,270,2013-05-01 09:53:00
4:53 AM,60.1,12.9,16,29.72,10.0,West,10.4,-,N/A,,Clear,270,2013-05-01 10:53:00
5:53 AM,52.0,21.9,31,29.78,10.0,WSW,11.5,-,N/A,,Clear,240,2013-05-01 11:53:00
6:53 AM,48.9,27.0,43,29.84,10.0,WSW,9.2,-,N/A,,Clear,240,2013-05-01 12:53:00
7:53 AM,54.0,28.0,37,29.86,10.0,West,8.1,-,N/A,,Clear,270,2013-05-01 13:53:00
8:53 AM,57.9,28.0,32,29.89,10.0,West,15.0,20.7,N/A,,Clear,270,2013-05-01 14:53:00
9:53 AM,60.1,25.0,26,29.90,10.0,West,18.4,25.3,N/A,,Clear,270,2013-05-01 15:53:00
10:53 AM,63.0,21.0,20,29.92,10.0,West,16.1,26.5,N/A,,Clear,270,2013-05-01 16:53:00
11:53 AM,64.0,12.9,14,29.92,10.0,West,19.6,29.9,N/A,,Partly Cloudy,280,2013-05-01 17:53:00
12:53 PM,64.9,12.0,13,29.91,10.0,West,18.4,28.8,N/A,,Clear,270,2013-05-01 18:53:00
1:53 PM,66.9,9.0,10,29.91,10.0,West,23.0,31.1,N/A,,Clear,270,2013-05-01 19:53:00
2:53 PM,66.9,-5.1,6,29.92,10.0,West,23.0,41.4,N/A,,Clear,280,2013-05-01 20:53:00
3:53 PM,66.9,-14.1,4,29.91,10.0,WNW,19.6,34.5,N/A,,Clear,300,2013-05-01 21:53:00
4:53 PM,64.9,-9.9,5,29.93,10.0,WNW,21.9,35.7,N/A,,Clear,300,2013-05-01 22:53:00
5:53 PM,63.0,-14.1,4,29.98,10.0,WNW,18.4,31.1,N/A,,Clear,300,2013-05-01 23:53:00
6:53 PM,59.0,-11.0,6,30.04,10.0,NW,15.0,28.8,N/A,,Clear,320,2013-05-02 00:53:00
7:53 PM,54.0,-9.9,7,30.08,10.0,NNW,17.3,26.5,N/A,,Clear,330,2013-05-02 01:53:00
8:53 PM,51.1,-11.9,7,30.12,10.0,NW,11.5,18.4,N/A,,Clear,320,2013-05-02 02:53:00
9:53 PM,46.9,-14.1,7,30.16,10.0,NNW,9.2,-,N/A,,Clear,330,2013-05-02 03:53:00
10:53 PM,46.0,-13.0,8,30.19,10.0,NW,9.2,-,N/A,,Clear,320,2013-05-02 04:53:00
11:53 PM,46.0,-6.0,11,30.20,10.0,NW,12.7,-,N/A,,Clear,310,2013-05-02 05:53:00